Terminal Aerodrome Forecast
Issued by NWS

Home | Current Version | Previous Version | Text Only | Print | Product List | Glossary On
Versions: 1 2 3 4 5 6 7 8 9 10 11 12 13
000
FTUS45 KGJT 191120
TAFTEX
TAF
KTEX 191120Z 1912/2012 29006KT P6SM SCT200
     FM191800 20006KT P6SM SCT090 BKN130
     FM192300 23007KT P6SM SCT060 BKN150
     FM200200 17005KT P6SM SCT060 BKN140
     FM201000 16007KT P6SM FEW045 SCT070=

USA.gov is the U.S. government's official web portal to all federal, state and local government web resources and services.